createdAt,value
2022-10-16T00:02:16.348Z,27.65
2022-10-16T00:04:43.609Z,26.73
2022-10-16T00:07:10.820Z,28.95
2022-10-16T00:09:38.083Z,27.77
2022-10-16T00:12:07.665Z,28.35
2022-10-16T00:14:34.897Z,38.25
2022-10-16T00:17:02.114Z,40.28
2022-10-16T00:19:29.304Z,32.10
2022-10-16T00:21:56.498Z,31.10
2022-10-16T00:24:23.732Z,29.50
2022-10-16T00:26:51.246Z,27.75
2022-10-16T00:29:18.468Z,29.20
2022-10-16T00:31:45.762Z,29.75
2022-10-16T00:34:12.957Z,27.00
2022-10-16T00:36:40.160Z,27.40
2022-10-16T00:39:07.485Z,26.98
2022-10-16T00:41:34.798Z,31.77
2022-10-16T00:44:02.761Z,32.42
2022-10-16T00:46:33.086Z,40.60
2022-10-16T00:49:07.714Z,49.95
2022-10-16T00:51:39.090Z,63.65
2022-10-16T00:54:08.696Z,62.55
2022-10-16T00:56:35.910Z,64.05
2022-10-16T00:59:03.978Z,44.97
2022-10-16T01:01:31.210Z,49.50
2022-10-16T01:03:58.457Z,40.60
2022-10-16T01:06:27.289Z,32.25
2022-10-16T01:09:13.539Z,31.42
2022-10-16T01:11:43.794Z,26.83
2022-10-16T01:14:13.526Z,26.30
2022-10-16T01:16:42.517Z,23.40
2022-10-16T01:19:18.325Z,26.23
2022-10-16T01:21:45.947Z,25.40
2022-10-16T01:24:23.781Z,24.52
2022-10-16T01:27:03.105Z,22.25
2022-10-16T01:29:39.158Z,21.85
2022-10-16T01:32:12.216Z,23.77
2022-10-16T01:34:40.593Z,23.45
2022-10-16T01:37:09.238Z,28.63
2022-10-16T01:39:37.326Z,31.10
2022-10-16T01:42:09.933Z,27.92
2022-10-16T01:44:37.485Z,33.65
2022-10-16T01:47:04.695Z,24.60
2022-10-16T01:49:33.894Z,29.25
2022-10-16T01:54:33.764Z,32.22
2022-10-16T01:57:00.975Z,30.98
2022-10-16T01:59:28.187Z,25.63
2022-10-16T02:01:57.015Z,26.40
2022-10-16T02:04:24.212Z,26.70
2022-10-16T02:06:51.469Z,22.88
2022-10-16T02:09:18.716Z,22.75
2022-10-16T02:11:45.973Z,22.80
2022-10-16T02:14:13.212Z,20.83
2022-10-16T02:16:44.318Z,18.13
2022-10-16T02:19:11.567Z,18.58
2022-10-16T02:21:43.131Z,20.40
2022-10-16T02:24:11.545Z,19.60
2022-10-16T02:26:50.714Z,22.15
2022-10-16T02:29:18.508Z,19.08
2022-10-16T02:31:48.218Z,20.70
2022-10-16T02:34:15.410Z,20.88
2022-10-16T02:36:42.789Z,20.95
2022-10-16T02:39:10.123Z,22.33
2022-10-16T02:41:37.422Z,24.40
2022-10-16T02:44:04.733Z,25.23
2022-10-16T02:46:31.946Z,23.17
2022-10-16T02:48:59.157Z,17.27
2022-10-16T02:51:26.743Z,20.15
2022-10-16T02:53:53.976Z,19.13
2022-10-16T02:56:21.196Z,21.83
2022-10-16T02:58:48.426Z,23.35
2022-10-16T03:01:17.804Z,20.17
2022-10-16T03:03:45.061Z,23.25
2022-10-16T03:06:12.277Z,24.23
2022-10-16T03:08:39.473Z,21.85
2022-10-16T03:11:06.679Z,21.88
2022-10-16T03:13:33.930Z,27.25
2022-10-16T03:16:01.172Z,24.50
2022-10-16T03:18:28.364Z,23.63
2022-10-16T03:20:55.605Z,21.05
2022-10-16T03:23:22.844Z,21.70
2022-10-16T03:25:50.109Z,19.08
2022-10-16T03:28:17.373Z,17.73
2022-10-16T03:30:44.936Z,16.83
2022-10-16T03:33:12.175Z,17.10
2022-10-16T03:35:39.409Z,19.27
2022-10-16T03:38:06.615Z,20.77
2022-10-16T03:40:33.807Z,14.68
2022-10-16T03:43:01.365Z,17.30
2022-10-16T03:45:30.725Z,20.67
2022-10-16T03:47:57.942Z,17.20
2022-10-16T03:50:25.163Z,20.30
2022-10-16T03:52:52.364Z,18.83
2022-10-16T03:55:19.594Z,17.60
2022-10-16T03:57:46.870Z,18.88
2022-10-16T04:00:14.299Z,25.20
2022-10-16T04:02:41.892Z,20.95
2022-10-16T04:05:09.345Z,25.48
2022-10-16T04:07:36.598Z,25.70
2022-10-16T04:10:03.889Z,22.88
2022-10-16T04:12:31.162Z,25.92
2022-10-16T04:14:58.404Z,24.83
2022-10-16T04:17:25.849Z,21.02
2022-10-16T04:19:53.166Z,23.52
2022-10-16T04:22:20.402Z,23.33
2022-10-16T04:24:47.630Z,26.52
2022-10-16T04:27:14.893Z,25.67
2022-10-16T04:29:42.094Z,23.30
2022-10-16T04:32:10.379Z,24.05
2022-10-16T04:34:39.252Z,20.65
2022-10-16T04:37:06.465Z,28.17
2022-10-16T04:39:33.658Z,22.42
2022-10-16T04:42:00.924Z,21.92
2022-10-16T04:44:28.119Z,21.20
2022-10-16T04:46:55.314Z,20.67
2022-10-16T04:49:22.553Z,20.58
2022-10-16T04:51:49.802Z,19.98
2022-10-16T04:54:17.022Z,24.55
2022-10-16T04:56:48.033Z,26.33
2022-10-16T04:59:16.059Z,26.67
2022-10-16T05:01:43.263Z,26.75
2022-10-16T05:04:10.504Z,24.83
2022-10-16T05:06:37.823Z,29.65
2022-10-16T05:09:05.072Z,23.55
2022-10-16T05:11:32.428Z,22.55
2022-10-16T05:13:59.708Z,21.67
2022-10-16T05:16:26.985Z,23.83
2022-10-16T05:19:00.060Z,21.67
2022-10-16T05:21:37.418Z,23.70
2022-10-16T05:24:04.702Z,26.75
2022-10-16T05:26:31.896Z,25.48
2022-10-16T05:28:59.156Z,28.08
2022-10-16T05:31:26.485Z,28.83
2022-10-16T05:33:53.687Z,25.25
2022-10-16T05:36:20.938Z,25.23
2022-10-16T05:38:48.167Z,23.95
2022-10-16T05:41:15.410Z,22.15
2022-10-16T05:43:42.606Z,23.55
2022-10-16T05:46:09.835Z,26.70
2022-10-16T05:48:37.025Z,24.90
2022-10-16T05:51:05.055Z,29.30
2022-10-16T05:53:32.772Z,22.85
2022-10-16T05:56:00.051Z,28.02
2022-10-16T05:58:27.505Z,24.70
2022-10-16T06:00:57.982Z,25.15
2022-10-16T06:03:25.332Z,28.98
2022-10-16T06:05:52.658Z,27.05
2022-10-16T06:08:20.373Z,64.90
2022-10-16T06:10:47.621Z,48.60
2022-10-16T06:13:15.016Z,60.88
2022-10-16T06:15:42.926Z,46.78
2022-10-16T06:18:10.594Z,51.70
2022-10-16T06:20:38.460Z,52.25
2022-10-16T06:23:05.693Z,51.55
2022-10-16T06:25:33.260Z,32.95
2022-10-16T06:28:00.512Z,31.38
2022-10-16T06:30:27.892Z,37.30
2022-10-16T06:35:27.226Z,40.03
2022-10-16T06:37:54.863Z,42.55
2022-10-16T06:40:22.053Z,53.85
2022-10-16T06:42:49.322Z,63.97
2022-10-16T06:45:16.567Z,64.72
2022-10-16T06:47:43.762Z,59.40
2022-10-16T06:50:10.982Z,60.45
2022-10-16T06:52:38.245Z,55.42
2022-10-16T06:55:05.657Z,51.13
2022-10-16T06:57:32.878Z,46.25
2022-10-16T07:00:00.173Z,42.80
2022-10-16T07:02:27.702Z,79.18
2022-10-16T07:04:55.165Z,41.38
2022-10-16T07:07:22.425Z,51.47
2022-10-16T07:09:49.646Z,42.53
2022-10-16T07:12:16.866Z,60.55
2022-10-16T07:14:44.095Z,88.65
2022-10-16T07:17:11.285Z,34.88
2022-10-16T07:19:38.809Z,60.78
2022-10-16T07:22:06.145Z,52.80
2022-10-16T07:24:33.637Z,44.70
2022-10-16T07:27:00.833Z,49.58
2022-10-16T07:29:28.066Z,67.80
2022-10-16T07:31:55.290Z,37.47
2022-10-16T07:34:22.945Z,40.00
2022-10-16T07:36:51.064Z,50.72
2022-10-16T07:39:18.654Z,45.72
2022-10-16T07:41:45.885Z,36.50
2022-10-16T07:44:13.199Z,30.25
2022-10-16T07:46:40.453Z,35.08
2022-10-16T07:49:07.689Z,29.38
2022-10-16T07:51:35.107Z,21.60
2022-10-16T07:54:02.919Z,19.90
2022-10-16T07:56:30.124Z,19.15
2022-10-16T07:58:57.735Z,20.38
2022-10-16T08:01:25.011Z,14.80
2022-10-16T08:03:52.712Z,13.10
2022-10-16T08:06:23.440Z,11.85
2022-10-16T08:08:54.093Z,12.80
2022-10-16T08:11:21.412Z,9.43
2022-10-16T08:13:48.624Z,10.68
2022-10-16T08:16:15.892Z,10.43
2022-10-16T08:18:43.155Z,8.80
2022-10-16T08:21:18.572Z,8.80
2022-10-16T08:23:52.946Z,9.85
2022-10-16T08:26:25.517Z,7.40
2022-10-16T08:28:53.207Z,8.75
2022-10-16T08:31:20.650Z,7.10
2022-10-16T08:33:48.771Z,8.23
2022-10-16T08:36:16.257Z,7.47
2022-10-16T08:38:43.466Z,7.38
2022-10-16T08:41:29.281Z,7.40
2022-10-16T08:44:01.059Z,8.95
2022-10-16T08:46:31.305Z,10.15
2022-10-16T08:48:59.036Z,8.23
2022-10-16T08:51:30.356Z,7.88
2022-10-16T08:54:07.875Z,81.22
2022-10-16T08:56:35.120Z,7.18
2022-10-16T08:59:03.235Z,6.10
2022-10-16T09:01:40.906Z,5.68
2022-10-16T09:04:31.454Z,4.75
2022-10-16T09:06:58.666Z,6.88
2022-10-16T09:09:44.598Z,7.22
2022-10-16T09:12:14.477Z,5.20
2022-10-16T09:15:00.527Z,5.68
2022-10-16T09:17:36.893Z,5.82
2022-10-16T09:20:09.891Z,6.03
2022-10-16T09:22:37.133Z,5.05
2022-10-16T09:25:12.287Z,5.30
2022-10-16T09:27:39.510Z,6.55
2022-10-16T09:30:17.089Z,5.20
2022-10-16T09:32:44.903Z,5.03
2022-10-16T09:35:16.030Z,4.22
2022-10-16T09:37:44.290Z,7.97
2022-10-16T09:40:35.662Z,4.60
2022-10-16T09:43:23.297Z,4.32
2022-10-16T09:45:57.313Z,7.65
2022-10-16T09:48:25.123Z,5.28
2022-10-16T09:50:59.329Z,6.10
2022-10-16T09:53:27.591Z,7.40
2022-10-16T09:55:55.081Z,8.65
2022-10-16T09:58:25.885Z,5.82
2022-10-16T10:00:54.247Z,5.25
2022-10-16T10:03:41.734Z,4.72
2022-10-16T10:06:17.374Z,6.20
2022-10-16T10:08:54.692Z,5.63
2022-10-16T10:11:38.011Z,8.25
2022-10-16T10:14:06.066Z,6.07
2022-10-16T10:16:33.281Z,9.95
2022-10-16T10:19:01.385Z,4.32
2022-10-16T10:21:28.590Z,4.97
2022-10-16T10:23:58.546Z,4.18
2022-10-16T10:26:26.839Z,4.10
2022-10-16T10:28:57.166Z,3.55
2022-10-16T10:31:27.561Z,3.58
2022-10-16T10:33:56.527Z,3.35
2022-10-16T10:36:26.170Z,3.85
2022-10-16T10:39:12.691Z,3.70
2022-10-16T10:41:39.999Z,3.90
2022-10-16T10:44:26.159Z,4.13
2022-10-16T10:46:55.802Z,3.67
2022-10-16T10:49:27.900Z,3.78
2022-10-16T10:51:55.476Z,7.00
2022-10-16T10:54:25.690Z,3.65
2022-10-16T10:56:53.351Z,4.15
2022-10-16T10:59:29.677Z,4.00
2022-10-16T11:02:20.233Z,3.72
2022-10-16T11:04:50.159Z,4.95
2022-10-16T11:07:19.479Z,4.00
2022-10-16T11:09:48.103Z,3.63
2022-10-16T11:12:35.147Z,3.80
2022-10-16T11:15:16.268Z,4.68
2022-10-16T11:17:44.034Z,3.65
2022-10-16T11:20:27.820Z,4.68
2022-10-16T11:22:57.332Z,3.90
2022-10-16T11:25:25.548Z,4.10
2022-10-16T11:28:00.759Z,3.75
2022-10-16T11:30:28.762Z,5.53
2022-10-16T11:33:02.860Z,6.70
2022-10-16T11:35:36.109Z,4.10
2022-10-16T11:38:03.745Z,4.20
2022-10-16T11:40:31.234Z,4.78
2022-10-16T11:43:17.450Z,4.05
2022-10-16T11:45:45.619Z,5.93
2022-10-16T11:48:26.756Z,3.85
2022-10-16T11:50:54.068Z,5.68
2022-10-16T11:53:39.535Z,4.18
2022-10-16T11:56:06.879Z,6.88
2022-10-16T11:58:40.047Z,4.57
2022-10-16T12:01:07.286Z,5.47
2022-10-16T12:03:50.745Z,4.00
2022-10-16T12:06:39.330Z,4.57
2022-10-16T12:09:06.548Z,3.88
2022-10-16T12:11:35.205Z,4.40
2022-10-16T12:14:06.038Z,3.83
2022-10-16T12:16:33.239Z,5.80
2022-10-16T12:19:17.100Z,3.60
2022-10-16T12:21:44.635Z,5.43
2022-10-16T12:24:30.583Z,3.88
2022-10-16T12:26:57.826Z,6.18
2022-10-16T12:29:34.011Z,3.85
2022-10-16T12:32:01.239Z,4.75
2022-10-16T12:34:38.319Z,4.40
2022-10-16T12:37:32.002Z,4.68
2022-10-16T12:39:59.205Z,4.70
2022-10-16T12:42:30.986Z,5.40
2022-10-16T12:44:58.314Z,5.22
2022-10-16T12:47:36.653Z,3.70
2022-10-16T12:50:09.047Z,4.80
2022-10-16T12:52:39.256Z,4.97
2022-10-16T12:55:07.033Z,4.75
2022-10-16T12:57:52.694Z,3.97
2022-10-16T13:00:19.938Z,5.00
2022-10-16T13:02:53.293Z,4.43
2022-10-16T13:05:20.538Z,7.35
2022-10-16T13:07:50.935Z,4.70
2022-10-16T13:10:27.646Z,4.45
2022-10-16T13:13:14.395Z,5.82
2022-10-16T13:15:41.688Z,4.70
2022-10-16T13:18:12.154Z,5.45
2022-10-16T13:20:55.478Z,7.18
2022-10-16T13:23:26.500Z,4.80
2022-10-16T13:25:53.705Z,4.63
2022-10-16T13:28:21.799Z,6.30
2022-10-16T13:30:55.786Z,5.38
2022-10-16T13:33:26.830Z,5.18
2022-10-16T13:35:54.976Z,4.40
2022-10-16T13:38:23.441Z,5.00
2022-10-16T13:40:56.636Z,5.60
2022-10-16T13:43:28.155Z,6.63
2022-10-16T13:45:59.318Z,5.32
2022-10-16T13:48:26.614Z,6.10
2022-10-16T13:51:00.454Z,4.90
2022-10-16T13:53:27.665Z,6.13
2022-10-16T13:55:54.878Z,5.90
2022-10-16T13:58:22.147Z,6.47
2022-10-16T14:01:18.765Z,7.18
2022-10-16T14:03:46.029Z,7.47
2022-10-16T14:06:14.734Z,7.43
2022-10-16T14:08:43.672Z,7.22
2022-10-16T14:11:10.871Z,8.50
2022-10-16T14:13:39.018Z,7.50
2022-10-16T14:16:08.004Z,7.68
2022-10-16T14:18:36.000Z,14.38
2022-10-16T14:21:09.596Z,13.95
2022-10-16T14:23:40.178Z,19.00
2022-10-16T14:26:10.352Z,23.90
2022-10-16T14:28:38.004Z,17.23
2022-10-16T14:31:19.250Z,18.38
2022-10-16T14:33:46.457Z,28.65
2022-10-16T14:36:14.427Z,32.42
2022-10-16T14:38:45.179Z,29.88
2022-10-16T14:41:12.437Z,18.08
2022-10-16T14:43:40.716Z,15.05
2022-10-16T14:46:14.322Z,15.68
2022-10-16T14:48:42.775Z,15.15
2022-10-16T14:51:10.985Z,10.48
2022-10-16T14:53:38.195Z,8.02
2022-10-16T14:56:16.766Z,8.80
2022-10-16T14:58:45.349Z,7.78
2022-10-16T15:01:12.689Z,10.02
2022-10-16T15:03:40.146Z,9.32
2022-10-16T15:06:16.696Z,10.52
2022-10-16T15:08:43.893Z,8.32
2022-10-16T15:11:17.994Z,10.55
2022-10-16T15:13:45.238Z,10.35
2022-10-16T15:16:12.946Z,12.43
2022-10-16T15:18:40.171Z,11.43
2022-10-16T15:21:07.462Z,11.82
2022-10-16T15:23:34.863Z,13.60
2022-10-16T15:26:02.103Z,12.20
2022-10-16T15:28:29.370Z,14.35
2022-10-16T15:30:57.111Z,9.95
2022-10-16T15:33:29.804Z,52.10
2022-10-16T15:35:57.057Z,25.58
2022-10-16T15:38:24.414Z,12.40
2022-10-16T15:40:51.952Z,13.57
2022-10-16T15:43:19.769Z,30.65
2022-10-16T15:45:49.560Z,14.43
2022-10-16T15:48:16.777Z,17.02
2022-10-16T15:53:16.133Z,15.02
2022-10-16T15:55:43.353Z,15.07
2022-10-16T15:58:10.584Z,17.10
2022-10-16T16:00:38.532Z,28.08
2022-10-16T16:03:05.766Z,23.13
2022-10-16T16:05:34.327Z,28.33
2022-10-16T16:08:01.552Z,19.65
2022-10-16T16:10:28.753Z,24.85
2022-10-16T16:12:56.218Z,22.80
2022-10-16T16:15:23.508Z,30.60
2022-10-16T16:17:50.764Z,33.25
2022-10-16T16:20:18.052Z,28.45
2022-10-16T16:22:45.278Z,40.10
2022-10-16T16:25:12.482Z,90.97
2022-10-16T16:27:39.670Z,57.00
2022-10-16T16:30:14.066Z,48.70
2022-10-16T16:32:43.688Z,38.95
2022-10-16T16:35:11.075Z,34.10
2022-10-16T16:37:38.250Z,22.92
2022-10-16T16:40:05.678Z,23.95
2022-10-16T16:42:32.865Z,24.90
2022-10-16T16:45:00.051Z,43.15
2022-10-16T16:47:27.443Z,41.50
2022-10-16T16:49:54.830Z,50.20
2022-10-16T16:52:23.323Z,42.17
2022-10-16T16:54:53.014Z,55.47
2022-10-16T16:57:20.995Z,56.13
2022-10-16T16:59:48.278Z,59.65
2022-10-16T17:02:15.650Z,54.10
2022-10-16T17:04:42.923Z,54.30
2022-10-16T17:07:10.130Z,47.47
2022-10-16T17:09:37.363Z,46.65
2022-10-16T17:12:04.669Z,53.85
2022-10-16T17:14:31.905Z,63.20
2022-10-16T17:16:59.218Z,59.20
2022-10-16T17:19:26.439Z,61.42
2022-10-16T17:21:53.894Z,75.25
2022-10-16T17:24:21.643Z,77.28
2022-10-16T17:26:49.238Z,64.40
2022-10-16T17:29:18.060Z,118.32
2022-10-16T17:31:45.413Z,125.35
2022-10-16T17:34:12.821Z,124.57
2022-10-16T17:36:43.914Z,151.70
2022-10-16T17:39:12.047Z,150.75
2022-10-16T17:41:39.247Z,141.18
2022-10-16T17:44:06.754Z,122.15
2022-10-16T17:46:37.049Z,87.07
2022-10-16T17:49:07.465Z,81.28
2022-10-16T17:51:34.836Z,99.00
2022-10-16T17:54:02.134Z,96.95
2022-10-16T17:56:29.658Z,137.02
2022-10-16T17:58:57.395Z,118.30
2022-10-16T18:01:25.826Z,99.65
2022-10-16T18:03:53.886Z,86.93
2022-10-16T18:06:23.230Z,87.03
2022-10-16T18:08:51.097Z,81.72
2022-10-16T18:11:18.332Z,86.55
2022-10-16T18:13:45.546Z,78.75
2022-10-16T18:16:13.506Z,87.55
2022-10-16T18:18:41.105Z,84.72
2022-10-16T18:21:09.319Z,94.25
2022-10-16T18:23:36.622Z,79.25
2022-10-16T18:26:04.595Z,84.55
2022-10-16T18:28:31.947Z,140.63
2022-10-16T18:30:59.728Z,109.30
2022-10-16T18:33:27.267Z,115.82
2022-10-16T18:35:54.789Z,101.05
2022-10-16T18:38:22.048Z,82.97
2022-10-16T18:40:49.289Z,78.63
2022-10-16T18:43:16.509Z,69.15
2022-10-16T18:45:43.704Z,70.95
2022-10-16T18:48:11.064Z,66.05
2022-10-16T18:50:38.335Z,69.38
2022-10-16T18:53:05.822Z,60.75
2022-10-16T18:55:33.865Z,58.65
2022-10-16T18:58:01.122Z,59.63
2022-10-16T19:00:28.387Z,50.55
2022-10-16T19:02:55.846Z,54.05
2022-10-16T19:05:23.636Z,52.22
2022-10-16T19:07:50.844Z,52.70
2022-10-16T19:10:18.095Z,54.72
2022-10-16T19:12:45.394Z,74.82
2022-10-16T19:15:12.604Z,89.55
2022-10-16T19:17:39.908Z,76.50
2022-10-16T19:20:07.433Z,73.18
2022-10-16T19:22:53.434Z,66.63
2022-10-16T19:25:23.618Z,144.02
2022-10-16T19:27:51.270Z,76.90
2022-10-16T19:30:19.143Z,52.97
2022-10-16T19:32:46.481Z,48.00
2022-10-16T19:35:13.702Z,48.75
2022-10-16T19:37:41.022Z,60.30
2022-10-16T19:40:08.569Z,59.42
2022-10-16T19:42:36.315Z,61.03
2022-10-16T19:45:03.597Z,52.28
2022-10-16T19:47:32.256Z,64.63
2022-10-16T19:49:59.601Z,67.70
2022-10-16T19:52:27.255Z,64.07
2022-10-16T19:54:57.723Z,71.57
2022-10-16T19:57:25.387Z,54.83
2022-10-16T19:59:53.153Z,60.22
2022-10-16T20:02:20.527Z,67.15
2022-10-16T20:04:47.817Z,50.05
2022-10-16T20:07:16.006Z,56.33
2022-10-16T20:09:43.309Z,59.28
2022-10-16T20:12:10.526Z,46.60
2022-10-16T20:14:37.801Z,52.42
2022-10-16T20:17:05.154Z,51.33
2022-10-16T20:19:32.486Z,101.32
2022-10-16T20:21:59.683Z,81.05
2022-10-16T20:24:26.974Z,76.80
2022-10-16T20:26:54.161Z,66.03
2022-10-16T20:29:21.377Z,46.63
2022-10-16T20:31:48.606Z,50.13
2022-10-16T20:34:15.794Z,37.70
2022-10-16T20:36:45.307Z,39.70
2022-10-16T20:39:13.851Z,32.63
2022-10-16T20:41:41.126Z,29.98
2022-10-16T20:44:08.362Z,32.28
2022-10-16T20:46:35.594Z,31.88
2022-10-16T20:49:10.954Z,35.65
2022-10-16T20:51:50.025Z,38.42
2022-10-16T20:54:17.268Z,30.88
2022-10-16T20:56:44.718Z,34.85
2022-10-16T20:59:12.938Z,28.45
2022-10-16T21:01:40.259Z,31.92
2022-10-16T21:04:08.492Z,34.70
2022-10-16T21:06:36.613Z,46.28
2022-10-16T21:09:04.198Z,56.53
2022-10-16T21:14:05.002Z,43.75
2022-10-16T21:16:32.217Z,25.50
2022-10-16T21:18:59.475Z,25.20
2022-10-16T21:21:30.613Z,22.35
2022-10-16T21:23:58.097Z,19.10
2022-10-16T21:26:28.106Z,23.88
2022-10-16T21:29:13.504Z,30.52
2022-10-16T21:31:40.968Z,34.67
2022-10-16T21:34:08.219Z,31.23
2022-10-16T21:36:36.295Z,30.85
2022-10-16T21:39:04.282Z,34.10
2022-10-16T21:41:31.619Z,29.65
2022-10-16T21:43:59.227Z,34.40
2022-10-16T21:46:27.249Z,27.08
2022-10-16T21:48:55.003Z,23.70
2022-10-16T21:51:22.257Z,26.58
2022-10-16T21:53:49.451Z,29.30
2022-10-16T21:56:17.803Z,37.00
2022-10-16T21:58:45.256Z,40.20
2022-10-16T22:01:13.343Z,39.22
2022-10-16T22:03:40.608Z,38.83
2022-10-16T22:06:08.292Z,34.33
2022-10-16T22:08:36.416Z,39.40
2022-10-16T22:11:07.225Z,42.33
2022-10-16T22:13:34.546Z,27.25
2022-10-16T22:16:01.801Z,23.45
2022-10-16T22:18:29.020Z,27.15
2022-10-16T22:20:56.413Z,34.42
2022-10-16T22:23:23.808Z,33.33
2022-10-16T22:25:50.993Z,24.98
2022-10-16T22:28:18.440Z,29.38
2022-10-16T22:30:46.137Z,33.85
2022-10-16T22:33:13.338Z,35.17
2022-10-16T22:35:40.678Z,33.35
2022-10-16T22:38:07.896Z,34.65
2022-10-16T22:40:35.411Z,32.45
2022-10-16T22:43:03.631Z,28.40
2022-10-16T22:45:31.284Z,22.70
2022-10-16T22:47:58.469Z,28.90
2022-10-16T22:50:25.822Z,28.23
2022-10-16T22:52:53.065Z,29.13
2022-10-16T22:55:20.387Z,31.98
2022-10-16T22:57:47.621Z,32.30
2022-10-16T23:00:15.953Z,30.80
2022-10-16T23:02:43.189Z,34.75
2022-10-16T23:05:10.595Z,31.55
2022-10-16T23:07:38.321Z,27.05
2022-10-16T23:10:06.008Z,29.35
2022-10-16T23:12:33.230Z,26.90
2022-10-16T23:15:00.427Z,25.80
2022-10-16T23:17:27.993Z,21.98
2022-10-16T23:19:55.240Z,21.25
2022-10-16T23:22:22.441Z,23.95
2022-10-16T23:24:49.637Z,19.77
2022-10-16T23:27:16.872Z,19.92
2022-10-16T23:29:44.076Z,17.40
2022-10-16T23:32:11.274Z,21.55
2022-10-16T23:34:38.511Z,19.25
2022-10-16T23:37:06.631Z,16.90
2022-10-16T23:39:33.979Z,17.98
2022-10-16T23:42:01.216Z,18.80
2022-10-16T23:44:28.455Z,20.75
2022-10-16T23:46:55.654Z,18.45
2022-10-16T23:49:22.949Z,18.05
2022-10-16T23:51:50.145Z,18.60
2022-10-16T23:54:17.339Z,18.30
2022-10-16T23:56:44.595Z,24.42
2022-10-16T23:59:11.824Z,17.63
